Time;durP1;ratioP1;P1;durP2;ratioP2;P2;SDS_P1;SDS_P2;PMS_P1;PMS_P2;Temp;Humidity;BMP_temperature;BMP_pressure;BME280_temperature;BME280_humidity;BME280_pressure;Samples;Min_cycle;Max_cycle;Signal;HPM_P1;HPM_P2
2021/09/14 00:04:04;;;;;;;4.40;2.15;;;20.70;72.10;;;;;;10420664;28;20036;-61
2021/09/14 00:09:06;;;;;;;5.13;2.10;;;20.80;72.10;;;;;;10419132;28;20037;-61
2021/09/14 00:14:07;;;;;;;3.15;2.10;;;20.70;72.00;;;;;;10420420;28;20033;-61
2021/09/14 00:19:07;;;;;;;3.67;2.03;;;20.80;72.10;;;;;;10427454;28;20480;-61
2021/09/14 00:24:08;;;;;;;2.88;2.03;;;20.70;72.00;;;;;;10424677;28;20520;-61
2021/09/14 00:29:09;;;;;;;3.38;1.95;;;20.70;72.00;;;;;;10418074;28;20079;-61
2021/09/14 00:34:09;;;;;;;3.75;2.10;;;20.70;72.00;;;;;;10419557;28;20056;-61
2021/09/14 00:39:10;;;;;;;4.05;2.63;;;20.70;72.60;;;;;;10418897;28;20454;-61
2021/09/14 00:44:11;;;;;;;3.05;2.17;;;20.70;72.00;;;;;;10417366;28;20121;-60
2021/09/14 00:49:13;;;;;;;4.03;2.20;;;20.70;71.90;;;;;;10418720;28;20363;-61
2021/09/14 00:54:16;;;;;;;4.32;2.42;;;20.70;71.90;;;;;;10417904;28;20022;-61
2021/09/14 00:59:17;;;;;;;4.20;2.40;;;20.70;71.90;;;;;;10418379;28;20116;-61
2021/09/14 01:04:17;;;;;;;3.55;2.00;;;20.70;71.90;;;;;;10416836;28;20137;-61
2021/09/14 01:09:19;;;;;;;3.58;1.77;;;20.70;71.90;;;;;;10417614;28;20044;-61
2021/09/14 01:14:20;;;;;;;2.95;1.75;;;20.70;71.80;;;;;;10416771;28;20025;-61
2021/09/14 01:19:21;;;;;;;3.47;2.25;;;20.70;71.80;;;;;;10416791;28;20112;-61
2021/09/14 01:24:22;;;;;;;3.20;2.05;;;20.60;71.80;;;;;;10417496;28;20033;-61
2021/09/14 01:34:46;;;;;;;4.68;1.95;;;20.70;71.80;;;;;;10415886;28;20042;-61
2021/09/14 01:39:46;;;;;;;5.60;2.08;;;20.70;72.40;;;;;;10416782;28;20108;-61
2021/09/14 01:44:47;;;;;;;3.50;2.38;;;20.70;71.80;;;;;;10416585;28;20535;-61
2021/09/14 01:49:48;;;;;;;3.53;2.08;;;20.70;71.70;;;;;;10415316;28;20057;-61
2021/09/14 01:54:50;;;;;;;3.72;2.35;;;20.60;71.70;;;;;;10415061;28;20116;-61
2021/09/14 01:59:53;;;;;;;4.55;2.03;;;20.60;71.70;;;;;;10413145;28;20040;-62
2021/09/14 02:04:59;;;;;;;3.33;2.20;;;20.60;71.70;;;;;;10415909;28;20060;-61
2021/09/14 03:03:15;;;;;;;3.25;2.42;;;20.50;71.50;;;;;;10414271;28;20038;-61
2021/09/14 03:08:16;;;;;;;3.08;2.08;;;20.50;71.50;;;;;;10413931;28;20112;-62
2021/09/14 03:13:17;;;;;;;3.60;1.88;;;20.50;71.50;;;;;;10413606;28;20490;-61
2021/09/14 03:18:17;;;;;;;3.25;2.33;;;20.50;71.40;;;;;;10418220;28;20163;-61
2021/09/14 03:23:18;;;;;;;3.42;2.20;;;20.50;71.40;;;;;;10434561;28;20048;-61
2021/09/14 03:28:19;;;;;;;2.95;2.08;;;20.50;71.30;;;;;;10420543;28;20044;-61
2021/09/14 03:33:20;;;;;;;4.28;2.13;;;20.50;71.40;;;;;;10420640;28;20079;-61
2021/09/14 03:38:20;;;;;;;3.30;2.17;;;20.50;71.30;;;;;;10420829;28;20029;-61
2021/09/14 03:43:21;;;;;;;4.35;2.30;;;20.50;71.30;;;;;;10420964;28;20057;-61
2021/09/14 03:48:22;;;;;;;3.70;2.60;;;20.50;71.30;;;;;;10421038;28;20049;-61
2021/09/14 03:53:22;;;;;;;3.15;2.35;;;20.50;71.30;;;;;;10419604;28;20116;-61
2021/09/14 03:58:23;;;;;;;4.78;2.83;;;20.50;71.30;;;;;;10420963;28;20033;-60
2021/09/14 04:03:39;;;;;;;3.63;2.17;;;20.40;71.20;;;;;;10419708;28;20057;-61
2021/09/14 04:08:52;;;;;;;3.42;2.42;;;20.40;71.30;;;;;;10407113;28;20088;-61
2021/09/14 04:13:52;;;;;;;2.97;2.00;;;20.40;71.20;;;;;;10420140;28;20033;-61
2021/09/14 04:18:53;;;;;;;3.83;2.47;;;20.40;71.30;;;;;;10425791;28;20032;-61
2021/09/14 04:23:54;;;;;;;3.20;2.25;;;20.40;71.20;;;;;;10425828;28;20033;-61
2021/09/14 04:28:54;;;;;;;4.00;2.20;;;20.40;71.20;;;;;;10417127;28;20132;-61
2021/09/14 04:33:55;;;;;;;5.53;2.33;;;20.40;71.30;;;;;;10419151;28;20126;-61
2021/09/14 04:38:56;;;;;;;3.60;2.50;;;20.40;71.20;;;;;;10418145;28;20464;-61
2021/09/14 04:43:56;;;;;;;3.03;1.98;;;20.40;71.20;;;;;;10417759;28;20442;-62
2021/09/14 04:48:57;;;;;;;3.97;2.65;;;20.40;71.20;;;;;;10418481;28;20148;-61
2021/09/14 04:53:58;;;;;;;3.97;2.50;;;20.40;71.30;;;;;;10416617;28;20064;-62
2021/09/14 04:58:59;;;;;;;5.68;2.65;;;20.40;71.20;;;;;;10413713;28;20029;-61
2021/09/14 05:03:59;;;;;;;4.63;2.63;;;20.40;71.20;;;;;;10413008;28;20033;-61
2021/09/14 05:09:00;;;;;;;3.70;2.20;;;20.40;71.20;;;;;;10417356;28;20207;-64
2021/09/14 05:14:01;;;;;;;7.72;3.03;;;20.40;71.20;;;;;;10416138;28;20034;-62
2021/09/14 05:19:02;;;;;;;8.65;2.63;;;20.40;71.40;;;;;;10424638;28;20087;-60
2021/09/14 05:24:03;;;;;;;7.68;2.72;;;20.50;71.40;;;;;;10422412;28;20037;-61
2021/09/14 05:29:04;;;;;;;6.38;2.72;;;20.60;71.40;;;;;;10417454;28;20085;-61
2021/09/14 05:34:05;;;;;;;7.60;2.85;;;20.50;71.60;;;;;;10417210;28;20110;-63
2021/09/14 05:39:06;;;;;;;14.98;3.53;;;20.60;71.80;;;;;;10415496;28;20034;-61
2021/09/14 05:44:06;;;;;;;9.80;3.60;;;20.60;71.70;;;;;;10396590;28;20446;-58
2021/09/14 05:49:07;;;;;;;6.43;3.15;;;20.50;71.70;;;;;;10412534;28;20029;-61
2021/09/14 05:54:08;;;;;;;16.25;3.75;;;20.40;71.90;;;;;;10416042;28;20040;-61
2021/09/14 05:59:08;;;;;;;6.15;2.90;;;20.40;71.30;;;;;;10416873;28;20040;-62
2021/09/14 06:04:09;;;;;;;9.50;3.22;;;20.40;71.50;;;;;;10415862;28;20034;-61
2021/09/14 06:09:10;;;;;;;8.23;3.60;;;20.40;71.60;;;;;;10414519;28;20033;-62
2021/09/14 06:14:10;;;;;;;6.22;3.35;;;20.40;71.40;;;;;;10415045;28;20419;-62
2021/09/14 06:19:12;;;;;;;7.18;3.45;;;20.40;71.50;;;;;;10422906;28;20064;-62
2021/09/14 06:24:12;;;;;;;5.72;3.55;;;20.40;71.50;;;;;;10415448;28;20021;-61
2021/09/14 06:29:13;;;;;;;5.25;3.13;;;20.40;71.50;;;;;;10411383;28;20116;-62
2021/09/14 06:34:14;;;;;;;5.18;3.10;;;20.30;71.40;;;;;;10413081;28;20421;-61
2021/09/14 06:39:14;;;;;;;7.82;3.40;;;20.30;71.40;;;;;;10414362;28;20417;-57
2021/09/14 06:44:15;;;;;;;7.13;3.28;;;20.30;71.40;;;;;;10414029;28;20081;-60
2021/09/14 06:49:17;;;;;;;7.13;3.42;;;20.30;71.40;;;;;;10411398;28;20116;-60
2021/09/14 06:54:18;;;;;;;5.82;3.20;;;20.30;71.40;;;;;;10412600;28;20104;-60
2021/09/14 06:59:18;;;;;;;7.53;3.15;;;20.30;71.40;;;;;;10410147;28;20025;-60
2021/09/14 07:04:19;;;;;;;5.93;3.05;;;20.30;71.40;;;;;;10411774;28;20040;-60
2021/09/14 07:09:20;;;;;;;5.28;2.70;;;20.30;71.40;;;;;;10410588;28;20485;-60
2021/09/14 07:14:21;;;;;;;5.45;2.83;;;20.30;71.40;;;;;;10414053;28;20123;-60
2021/09/14 07:19:21;;;;;;;5.28;2.90;;;20.30;71.70;;;;;;10423420;28;20118;-60
2021/09/14 07:24:22;;;;;;;5.28;3.30;;;20.30;71.70;;;;;;10415896;28;20541;-60
2021/09/14 07:29:23;;;;;;;4.68;2.75;;;20.30;71.70;;;;;;10413432;28;20072;-60
2021/09/14 07:34:23;;;;;;;3.95;2.55;;;20.30;71.70;;;;;;10413656;28;20132;-60
2021/09/14 07:39:24;;;;;;;4.80;3.15;;;20.30;71.60;;;;;;10413319;28;20509;-60
2021/09/14 07:44:25;;;;;;;6.00;2.78;;;20.30;71.60;;;;;;10411895;28;20073;-60
2021/09/14 07:49:25;;;;;;;4.45;2.92;;;20.30;71.60;;;;;;10411952;28;20037;-60
2021/09/14 07:54:26;;;;;;;3.00;2.60;;;20.30;71.60;;;;;;10413327;28;20398;-60
2021/09/14 07:59:27;;;;;;;3.92;2.65;;;20.30;71.30;;;;;;10413131;28;20100;-60
2021/09/14 08:04:27;;;;;;;4.03;2.75;;;20.30;71.40;;;;;;10415584;28;20061;-60
2021/09/14 08:09:30;;;;;;;3.30;2.42;;;20.30;71.40;;;;;;10420295;28;20041;-60
2021/09/14 08:14:30;;;;;;;3.80;2.55;;;20.30;71.40;;;;;;10420331;28;20013;-60
2021/09/14 08:19:32;;;;;;;5.13;2.60;;;20.30;71.30;;;;;;10431630;28;20115;-60
2021/09/14 08:24:33;;;;;;;5.50;3.38;;;20.40;71.30;;;;;;10421604;28;20075;-60
2021/09/14 08:29:33;;;;;;;4.53;2.40;;;20.40;71.20;;;;;;10418404;28;20447;-60
2021/09/14 08:34:34;;;;;;;6.32;2.60;;;20.40;71.20;;;;;;10419508;28;20025;-60
2021/09/14 08:39:35;;;;;;;7.07;3.33;;;20.50;71.20;;;;;;10418152;28;20026;-59
2021/09/14 08:44:40;;;;;;;6.70;2.75;;;20.50;71.10;;;;;;10419337;28;20115;-60
2021/09/14 08:49:41;;;;;;;4.65;2.80;;;20.60;71.10;;;;;;10418905;28;20029;-60
2021/09/14 08:54:41;;;;;;;3.40;2.55;;;20.60;71.00;;;;;;10418849;28;20032;-60
2021/09/14 08:59:49;;;;;;;3.42;2.50;;;20.70;71.00;;;;;;10400829;28;20478;-60
2021/09/14 09:05:03;;;;;;;3.72;2.85;;;20.60;70.90;;;;;;10418498;28;20037;-60
2021/09/14 09:10:15;;;;;;;3.70;2.80;;;20.70;71.00;;;;;;10417982;28;20482;-60
2021/09/14 09:15:31;;;;;;;4.60;2.90;;;20.70;71.00;;;;;;10416196;28;20112;-60
2021/09/14 09:20:34;;;;;;;4.03;2.65;;;20.60;71.00;;;;;;10413651;28;20163;-60
2021/09/14 09:25:36;;;;;;;3.50;2.97;;;20.70;71.00;;;;;;10416393;28;20029;-60
2021/09/14 09:30:42;;;;;;;3.85;2.45;;;20.70;71.10;;;;;;10417535;28;20386;-60
2021/09/14 09:35:43;;;;;;;4.38;2.55;;;20.70;71.10;;;;;;10418892;28;20486;-60
2021/09/14 09:40:44;;;;;;;4.22;3.10;;;20.70;71.20;;;;;;10415748;28;20041;-60
2021/09/14 09:45:48;;;;;;;3.10;2.25;;;20.80;71.00;;;;;;10415820;28;20137;-60
2021/09/14 09:50:48;;;;;;;3.40;2.42;;;20.80;70.90;;;;;;10416550;28;20026;-64
2021/09/14 09:55:50;;;;;;;3.63;2.80;;;20.80;71.00;;;;;;10416433;28;20489;-60
2021/09/14 10:01:13;;;;;;;3.58;2.65;;;20.70;71.00;;;;;;10415226;28;20057;-60
2021/09/14 10:06:15;;;;;;;3.67;2.75;;;20.70;71.10;;;;;;10415431;28;20026;-60
2021/09/14 10:11:28;;;;;;;4.50;3.08;;;20.70;71.40;;;;;;10414755;28;20032;-60
2021/09/14 10:16:29;;;;;;;3.92;2.70;;;20.70;71.40;;;;;;10414415;28;20552;-60
2021/09/14 10:21:29;;;;;;;4.20;3.35;;;20.70;71.40;;;;;;10428783;28;20029;-60
2021/09/14 10:26:35;;;;;;;3.78;2.75;;;20.70;71.30;;;;;;10415194;28;20037;-60
2021/09/14 10:31:36;;;;;;;4.30;3.00;;;20.70;71.50;;;;;;10413695;28;20025;-60
2021/09/14 10:36:41;;;;;;;4.45;2.95;;;20.70;71.40;;;;;;10414941;28;20029;-60
2021/09/14 10:41:42;;;;;;;6.13;3.40;;;20.80;71.40;;;;;;10413428;28;20794;-60
2021/09/14 10:46:45;;;;;;;3.90;2.88;;;20.80;71.40;;;;;;10414936;28;20092;-60
2021/09/14 10:51:56;;;;;;;3.85;3.08;;;20.80;71.30;;;;;;10407943;28;20336;-61
2021/09/14 10:56:59;;;;;;;3.90;3.10;;;20.90;71.30;;;;;;10412670;28;20498;-60
2021/09/14 11:02:02;;;;;;;3.72;3.00;;;20.90;71.10;;;;;;10411724;28;20589;-61
2021/09/14 11:07:11;;;;;;;3.55;3.03;;;20.90;71.10;;;;;;10412423;28;20722;-61
2021/09/14 11:12:22;;;;;;;4.18;3.13;;;21.00;70.90;;;;;;10413109;28;20082;-61
2021/09/14 11:17:26;;;;;;;3.28;2.97;;;21.00;71.00;;;;;;10413034;28;20033;-61
2021/09/14 11:22:32;;;;;;;4.30;3.30;;;21.10;71.00;;;;;;10422637;28;20083;-61
2021/09/14 11:27:32;;;;;;;3.95;2.90;;;21.10;70.90;;;;;;10396106;28;20038;-61
2021/09/14 11:32:34;;;;;;;4.10;3.15;;;21.10;70.90;;;;;;10408051;28;20057;-62
2021/09/14 11:37:34;;;;;;;5.18;3.38;;;21.20;70.80;;;;;;10410252;28;20060;-61
2021/09/14 11:42:35;;;;;;;5.03;3.55;;;21.20;71.20;;;;;;10420471;28;20132;-61
2021/09/14 11:47:43;;;;;;;4.38;3.58;;;21.20;71.70;;;;;;10420765;28;20041;-61
2021/09/14 11:52:44;;;;;;;4.15;3.30;;;21.20;71.80;;;;;;10418938;28;20021;-61
2021/09/14 11:57:55;;;;;;;3.65;3.28;;;21.30;71.70;;;;;;10409916;28;20076;-61
2021/09/14 12:02:55;;;;;;;5.35;3.88;;;21.30;71.70;;;;;;10419673;28;20124;-61
2021/09/14 12:07:57;;;;;;;4.60;3.47;;;21.30;71.70;;;;;;10419874;28;20572;-61
2021/09/14 12:12:58;;;;;;;5.20;3.30;;;21.30;71.70;;;;;;10418044;28;20462;-58
2021/09/14 12:18:05;;;;;;;5.03;3.00;;;21.20;71.70;;;;;;10419627;28;20025;-57
2021/09/14 12:23:05;;;;;;;7.72;3.90;;;21.20;71.70;;;;;;10432819;28;20055;-58
2021/09/14 12:28:06;;;;;;;6.35;4.30;;;21.20;72.00;;;;;;10419294;28;20034;-57
2021/09/14 12:33:07;;;;;;;5.50;4.00;;;21.20;72.00;;;;;;10418966;28;20037;-58
2021/09/14 12:38:08;;;;;;;5.43;3.92;;;21.10;71.80;;;;;;10419186;28;20440;-61
2021/09/14 12:43:09;;;;;;;7.30;4.32;;;21.10;72.00;;;;;;10419031;28;20053;-61
2021/09/14 12:48:09;;;;;;;7.20;4.22;;;21.10;72.10;;;;;;10419349;28;20505;-60
2021/09/14 12:53:10;;;;;;;6.05;3.67;;;21.10;72.30;;;;;;10416232;28;20430;-60
2021/09/14 12:58:11;;;;;;;6.65;4.03;;;21.00;72.30;;;;;;10418942;28;20478;-60
2021/09/14 13:03:14;;;;;;;5.93;4.03;;;21.10;72.20;;;;;;10418864;28;20507;-61
2021/09/14 13:08:15;;;;;;;5.25;4.00;;;21.10;72.30;;;;;;10417330;28;20025;-60
2021/09/14 13:18:35;;;;;;;5.03;4.47;;;21.10;72.20;;;;;;10417494;28;20049;-60
2021/09/14 13:23:37;;;;;;;6.75;5.00;;;21.10;72.30;;;;;;10425599;28;20072;-60
2021/09/14 13:28:37;;;;;;;5.18;4.07;;;21.00;72.30;;;;;;10417322;28;20052;-61
2021/09/14 13:33:38;;;;;;;6.05;4.25;;;21.00;72.30;;;;;;10417833;28;20029;-60
2021/09/14 13:38:39;;;;;;;5.47;4.60;;;21.00;72.30;;;;;;10417668;28;20037;-60
2021/09/14 13:48:50;;;;;;;5.00;4.47;;;21.00;72.40;;;;;;10415455;28;20132;-60
2021/09/14 13:53:52;;;;;;;5.20;4.47;;;20.90;72.40;;;;;;10411830;28;20029;-60
2021/09/14 13:58:53;;;;;;;6.00;4.20;;;20.90;72.40;;;;;;10416728;28;20410;-60
2021/09/14 14:03:55;;;;;;;6.15;4.82;;;20.90;72.40;;;;;;10414087;28;20091;-60
2021/09/14 14:08:55;;;;;;;6.10;4.60;;;20.90;72.30;;;;;;10416200;28;20117;-59
2021/09/14 14:13:56;;;;;;;8.23;5.50;;;20.90;72.40;;;;;;10409108;28;20108;-60
2021/09/14 14:18:57;;;;;;;7.68;5.20;;;20.90;72.40;;;;;;10420680;28;20105;-61
2021/09/14 14:23:57;;;;;;;5.10;4.57;;;20.90;72.50;;;;;;10421342;28;20033;-61
2021/09/14 14:28:58;;;;;;;8.20;5.72;;;20.90;72.90;;;;;;10415274;28;20039;-60
2021/09/14 14:33:59;;;;;;;6.93;5.63;;;20.90;73.90;;;;;;10414521;28;20181;-59
2021/09/14 14:38:59;;;;;;;7.60;5.30;;;21.10;74.00;;;;;;10414720;28;20068;-59
2021/09/14 14:44:00;;;;;;;13.38;7.03;;;21.00;72.40;;;;;;10415191;28;20084;-60
2021/09/14 14:49:01;;;;;;;12.90;6.80;;;20.90;72.00;;;;;;10413312;28;20041;-58
2021/09/14 14:54:02;;;;;;;35.53;25.67;;;20.90;72.20;;;;;;10413635;28;20473;-59
2021/09/14 14:59:02;;;;;;;25.00;11.63;;;20.90;76.60;;;;;;10413597;28;20489;-60
2021/09/14 15:04:03;;;;;;;18.88;11.15;;;20.90;75.00;;;;;;10413554;28;20086;-60
2021/09/14 15:09:04;;;;;;;10.95;7.80;;;21.00;74.50;;;;;;10410078;28;20108;-59
2021/09/14 15:14:04;;;;;;;11.65;7.13;;;20.90;73.30;;;;;;10412837;28;20109;-60
2021/09/14 15:19:06;;;;;;;12.90;7.80;;;20.90;72.50;;;;;;10414696;28;20108;-61
2021/09/14 15:24:07;;;;;;;13.27;8.07;;;20.90;73.50;;;;;;10413404;28;20160;-61
2021/09/14 15:29:07;;;;;;;14.75;8.00;;;20.90;73.60;;;;;;10411754;28;20429;-62
2021/09/14 15:34:08;;;;;;;13.35;7.90;;;21.00;73.40;;;;;;10411961;28;20065;-61
2021/09/14 15:39:09;;;;;;;11.30;7.53;;;21.00;73.40;;;;;;10426609;28;20025;-62
2021/09/14 15:44:09;;;;;;;11.82;7.38;;;21.00;73.50;;;;;;10412339;28;20509;-61
2021/09/14 15:49:10;;;;;;;13.40;7.03;;;21.00;73.80;;;;;;10421684;28;20033;-62
2021/09/14 15:54:11;;;;;;;22.77;15.13;;;20.90;73.70;;;;;;10411978;28;20128;-61
2021/09/14 15:59:11;;;;;;;26.00;16.70;;;21.10;77.30;;;;;;10412917;28;20087;-60
2021/09/14 16:04:12;;;;;;;25.30;14.10;;;21.30;81.20;;;;;;10412915;28;20155;-58
2021/09/14 16:09:13;;;;;;;25.75;12.52;;;21.40;79.40;;;;;;10411326;28;20037;-60
2021/09/14 16:14:14;;;;;;;20.65;12.13;;;21.40;78.50;;;;;;10412583;28;20100;-60
2021/09/14 16:19:14;;;;;;;26.13;11.90;;;21.40;78.70;;;;;;10421391;28;20029;-60
2021/09/14 16:24:15;;;;;;;24.35;12.48;;;21.40;78.50;;;;;;10417324;28;20072;-59
2021/09/14 16:29:19;;;;;;;25.17;12.38;;;21.30;78.90;;;;;;10419988;28;20065;-60
2021/09/14 16:34:23;;;;;;;19.38;11.13;;;21.30;78.50;;;;;;10419859;28;20488;-59
2021/09/14 16:39:25;;;;;;;25.33;10.38;;;21.30;78.60;;;;;;10419192;28;20041;-57
2021/09/14 16:44:25;;;;;;;31.70;12.00;;;21.30;78.30;;;;;;10418191;28;20084;-58
2021/09/14 16:49:26;;;;;;;27.58;10.65;;;21.40;77.30;;;;;;10418305;28;20113;-59
2021/09/14 16:54:27;;;;;;;23.50;10.02;;;21.30;77.60;;;;;;10412266;28;20472;-59
2021/09/14 16:59:27;;;;;;;15.30;7.85;;;21.20;77.70;;;;;;10418055;28;20074;-60
2021/09/14 17:04:28;;;;;;;18.35;8.82;;;21.10;77.80;;;;;;10418526;28;20072;-58
2021/09/14 17:09:29;;;;;;;18.40;8.43;;;21.10;77.80;;;;;;10418066;28;20034;-58
2021/09/14 17:14:30;;;;;;;18.52;8.82;;;21.10;77.70;;;;;;10418054;28;20480;-58
2021/09/14 17:19:30;;;;;;;18.33;9.25;;;21.10;77.70;;;;;;10419263;28;20056;-59
2021/09/14 17:24:31;;;;;;;20.17;9.73;;;21.00;78.20;;;;;;10417935;28;20030;-59
2021/09/14 17:29:32;;;;;;;15.15;8.50;;;21.00;78.20;;;;;;10414884;28;20429;-60
2021/09/14 17:34:35;;;;;;;12.55;9.07;;;21.00;77.60;;;;;;10357100;28;20474;-60
2021/09/14 17:39:37;;;;;;;17.73;7.80;;;20.90;77.90;;;;;;10405915;28;20033;-59
2021/09/14 17:44:38;;;;;;;12.20;8.45;;;20.90;77.50;;;;;;10408633;28;20064;-60
2021/09/14 17:49:39;;;;;;;13.40;8.38;;;20.90;77.20;;;;;;10407459;28;20363;-59
2021/09/14 17:54:39;;;;;;;12.98;7.47;;;20.90;77.20;;;;;;10409295;28;20522;-59
2021/09/14 17:59:40;;;;;;;11.68;7.75;;;20.90;77.10;;;;;;10405148;28;20041;-59
2021/09/14 18:04:41;;;;;;;15.35;7.78;;;20.90;77.00;;;;;;10405624;28;20029;-59
2021/09/14 18:09:43;;;;;;;11.80;7.55;;;20.90;77.00;;;;;;10400932;28;20456;-60
2021/09/14 18:14:43;;;;;;;9.70;8.13;;;20.90;76.90;;;;;;10408654;28;20022;-59
2021/09/14 18:19:44;;;;;;;12.02;7.55;;;20.90;76.90;;;;;;10428342;28;20112;-59
2021/09/14 18:24:46;;;;;;;20.52;8.55;;;20.90;77.00;;;;;;10402388;28;20033;-59
2021/09/14 18:29:47;;;;;;;13.13;7.47;;;20.90;76.90;;;;;;10406560;28;20029;-58
2021/09/14 18:34:47;;;;;;;18.48;7.43;;;21.00;76.80;;;;;;10407829;28;20064;-59
2021/09/14 18:39:48;;;;;;;15.25;7.50;;;21.10;76.80;;;;;;10410363;28;20100;-59
2021/09/14 18:44:49;;;;;;;13.70;7.53;;;21.00;76.80;;;;;;10410477;28;20432;-58
2021/09/14 18:49:50;;;;;;;11.23;6.93;;;21.00;76.80;;;;;;10416284;28;20042;-58
2021/09/14 18:54:51;;;;;;;14.25;7.05;;;21.10;76.90;;;;;;10405869;28;20445;-59
2021/09/14 18:59:52;;;;;;;14.35;7.70;;;21.10;76.90;;;;;;10411001;28;20028;-59
2021/09/14 19:04:52;;;;;;;16.55;7.20;;;21.10;76.90;;;;;;10413490;28;20494;-59
2021/09/14 19:09:53;;;;;;;12.05;7.00;;;21.10;76.90;;;;;;10408850;28;20045;-60
2021/09/14 19:14:54;;;;;;;13.55;6.55;;;21.10;76.90;;;;;;10410717;28;20575;-59
2021/09/14 19:19:54;;;;;;;11.82;7.50;;;21.10;76.90;;;;;;10402853;28;20087;-59
2021/09/14 19:24:55;;;;;;;10.52;6.88;;;21.10;76.90;;;;;;10432239;28;20029;-59
2021/09/14 19:29:56;;;;;;;13.35;7.25;;;21.10;76.90;;;;;;10411458;28;20026;-58
2021/09/14 19:34:56;;;;;;;10.50;6.65;;;21.10;76.90;;;;;;10412477;28;20101;-59
2021/09/14 19:39:57;;;;;;;11.55;6.32;;;21.00;76.80;;;;;;10412529;28;20442;-58
2021/09/14 19:44:58;;;;;;;10.13;7.10;;;21.10;76.90;;;;;;10412135;28;20184;-58
2021/09/14 19:49:58;;;;;;;12.07;6.85;;;21.10;76.90;;;;;;10411568;28;20474;-58
2021/09/14 19:54:59;;;;;;;10.77;6.75;;;21.00;76.70;;;;;;10411954;28;20045;-57
2021/09/14 20:00:01;;;;;;;12.25;6.47;;;20.90;76.80;;;;;;10416447;28;20029;-57
2021/09/14 20:05:02;;;;;;;12.65;7.00;;;20.90;76.80;;;;;;10419845;28;20045;-57
2021/09/14 20:10:05;;;;;;;8.05;6.80;;;20.90;76.70;;;;;;10420987;28;20386;-58
2021/09/14 20:15:07;;;;;;;9.65;6.93;;;20.90;76.70;;;;;;10420638;28;20250;-57
2021/09/14 20:20:09;;;;;;;8.40;6.55;;;20.90;76.70;;;;;;10431975;28;20112;-57
2021/09/14 20:25:10;;;;;;;9.98;6.38;;;20.90;76.70;;;;;;10420017;28;20029;-58
2021/09/14 20:30:12;;;;;;;9.13;6.18;;;20.90;76.60;;;;;;10418906;28;20025;-58
2021/09/14 20:35:14;;;;;;;8.05;6.10;;;20.90;76.70;;;;;;10418770;28;20037;-57
2021/09/14 20:40:14;;;;;;;7.70;6.90;;;20.90;76.60;;;;;;10419816;28;20489;-57
2021/09/14 20:45:16;;;;;;;8.95;6.93;;;20.90;76.60;;;;;;10419715;28;20045;-57
2021/09/14 20:50:17;;;;;;;8.48;6.55;;;20.90;76.60;;;;;;10418156;28;20040;-57
2021/09/14 20:55:17;;;;;;;11.02;6.90;;;20.90;76.50;;;;;;10419492;28;20104;-58
2021/09/14 21:00:18;;;;;;;8.00;6.75;;;20.90;76.50;;;;;;10419269;28;20045;-57
2021/09/14 21:05:19;;;;;;;10.63;7.68;;;20.80;76.40;;;;;;10418997;28;20415;-57
2021/09/14 21:10:20;;;;;;;8.68;6.57;;;20.80;76.40;;;;;;10417009;28;20444;-57
2021/09/14 21:15:21;;;;;;;6.70;6.03;;;20.80;76.40;;;;;;10418743;28;20053;-57
2021/09/14 21:20:21;;;;;;;7.47;6.45;;;20.90;76.40;;;;;;10446621;28;20478;-57
2021/09/14 21:25:22;;;;;;;9.63;7.65;;;20.80;76.30;;;;;;10416970;28;20393;-57
2021/09/14 21:30:23;;;;;;;7.80;6.93;;;20.80;76.30;;;;;;10417514;28;20029;-58
2021/09/14 21:35:23;;;;;;;8.20;6.32;;;20.80;76.30;;;;;;10417369;28;20030;-57
2021/09/14 21:40:24;;;;;;;8.32;6.95;;;20.80;76.20;;;;;;10399877;28;20116;-58
2021/09/14 21:45:25;;;;;;;7.78;6.25;;;20.80;76.20;;;;;;10415986;28;20516;-58
2021/09/14 21:50:25;;;;;;;7.03;6.32;;;20.80;76.20;;;;;;10417080;28;20120;-58
2021/09/14 21:55:26;;;;;;;8.15;6.40;;;20.80;76.20;;;;;;10416654;28;20037;-59
2021/09/14 22:00:53;;;;;;;8.10;6.45;;;20.80;76.20;;;;;;10416297;28;20037;-58
2021/09/14 22:05:54;;;;;;;9.30;6.32;;;20.80;76.10;;;;;;10413534;28;20041;-57
2021/09/14 22:10:55;;;;;;;10.45;6.55;;;20.80;76.10;;;;;;10416627;28;20459;-57
2021/09/14 22:15:55;;;;;;;11.32;6.80;;;20.80;76.10;;;;;;10416591;28;20543;-58
2021/09/14 22:20:56;;;;;;;7.78;6.95;;;20.80;76.20;;;;;;10428436;28;20083;-58
2021/09/14 22:25:57;;;;;;;9.52;6.78;;;20.80;76.10;;;;;;10414304;28;20443;-58
2021/09/14 22:30:57;;;;;;;8.73;6.47;;;20.80;76.10;;;;;;10415620;28;20038;-57
2021/09/14 22:35:59;;;;;;;7.43;6.70;;;20.80;76.10;;;;;;10415364;28;20037;-58
2021/09/14 22:40:59;;;;;;;10.38;8.43;;;20.80;76.10;;;;;;10415476;28;20025;-57
2021/09/14 22:46:00;;;;;;;9.32;7.25;;;20.80;76.10;;;;;;10414660;28;20052;-57
2021/09/14 22:51:01;;;;;;;10.15;7.85;;;20.80;76.10;;;;;;10414729;28;20033;-57
2021/09/14 22:56:02;;;;;;;8.32;7.50;;;20.80;76.20;;;;;;10415032;28;20057;-57
2021/09/14 23:01:03;;;;;;;8.05;7.25;;;20.80;76.30;;;;;;10414646;28;20025;-57
2021/09/14 23:06:04;;;;;;;8.13;7.18;;;20.80;76.30;;;;;;10414636;28;20029;-57
2021/09/14 23:11:05;;;;;;;9.73;7.18;;;20.80;76.20;;;;;;10414251;28;20488;-58
2021/09/14 23:16:06;;;;;;;8.90;8.00;;;20.80;76.20;;;;;;10412819;28;20044;-58
2021/09/14 23:21:06;;;;;;;8.80;7.88;;;20.80;76.20;;;;;;10425913;28;20065;-58
2021/09/14 23:26:07;;;;;;;9.80;7.45;;;20.80;76.20;;;;;;10414252;28;20460;-57
2021/09/14 23:31:08;;;;;;;8.88;7.97;;;20.80;76.30;;;;;;10413997;28;20114;-57
2021/09/14 23:36:09;;;;;;;8.70;6.85;;;20.80;76.20;;;;;;10418924;28;20033;-58
2021/09/14 23:41:09;;;;;;;8.63;7.80;;;20.80;76.20;;;;;;10421964;28;20037;-57
2021/09/14 23:46:10;;;;;;;8.50;7.30;;;20.80;76.10;;;;;;10420741;28;20045;-58
2021/09/14 23:51:13;;;;;;;7.72;6.60;;;20.80;76.20;;;;;;10421748;28;20112;-57
2021/09/14 23:56:13;;;;;;;8.77;7.88;;;20.80;76.20;;;;;;10421736;28;20025;-57
